Time;durP1;ratioP1;P1;durP2;ratioP2;P2;SDS_P1;SDS_P2;PMS_P1;PMS_P2;Temp;Humidity;BMP_temperature;BMP_pressure;BME280_temperature;BME280_humidity;BME280_pressure;Samples;Min_cycle;Max_cycle;Signal;HPM_P1;HPM_P2
2021/10/14 00:00:20;;;;;;;0.10;0.10;;;11.60;99.90;;;;;;6249013;22;20054;-83
2021/10/14 00:02:47;;;;;;;0.00;0.00;;;11.70;99.90;;;;;;6274280;22;20074;-84
2021/10/14 00:05:16;;;;;;;0.00;0.00;;;11.70;99.90;;;;;;6274393;22;20026;-83
2021/10/14 00:07:42;;;;;;;0.00;0.00;;;11.50;99.90;;;;;;6300779;22;20011;-83
2021/10/14 00:10:09;;;;;;;0.00;0.00;;;11.70;99.90;;;;;;6274467;22;20148;-83
2021/10/14 00:12:36;;;;;;;0.00;0.00;;;11.80;99.90;;;;;;6274667;22;20015;-83
2021/10/14 00:15:04;;;;;;;0.00;0.00;;;11.80;99.90;;;;;;6325587;22;20094;-84
2021/10/14 00:17:30;;;;;;;0.00;0.00;;;11.80;99.90;;;;;;6299736;22;20383;-83
2021/10/14 00:19:57;;;;;;;0.00;0.00;;;11.80;99.90;;;;;;6325063;22;20015;-83
2021/10/14 00:22:24;;;;;;;0.00;0.00;;;11.80;99.90;;;;;;6324911;22;20018;-83
2021/10/14 00:24:52;;;;;;;0.10;0.10;;;11.90;99.90;;;;;;6249504;22;20027;-83
2021/10/14 00:27:18;;;;;;;0.00;0.00;;;11.80;99.90;;;;;;6299823;22;20019;-83
2021/10/14 00:29:45;;;;;;;0.00;0.00;;;11.80;99.90;;;;;;6299920;22;20193;-83
2021/10/14 00:32:12;;;;;;;0.00;0.00;;;11.80;99.90;;;;;;6249309;22;20013;-83
2021/10/14 00:34:39;;;;;;;0.10;0.10;;;11.90;99.90;;;;;;6249254;22;20077;-83
2021/10/14 00:37:05;;;;;;;0.00;0.00;;;11.80;99.90;;;;;;6274312;22;20055;-83
2021/10/14 00:39:32;;;;;;;0.00;0.00;;;11.80;99.90;;;;;;6274292;22;20029;-83
2021/10/14 00:41:59;;;;;;;0.00;0.00;;;11.80;99.90;;;;;;6299525;22;20019;-83
2021/10/14 00:44:26;;;;;;;0.00;0.00;;;11.80;99.90;;;;;;6298736;22;20011;-83
2021/10/14 00:46:54;;;;;;;0.00;0.00;;;11.80;99.90;;;;;;6274221;22;20145;-83
2021/10/14 00:49:22;;;;;;;0.00;0.00;;;11.70;99.90;;;;;;6299040;22;20094;-83
2021/10/14 00:51:48;;;;;;;0.10;0.10;;;11.70;99.90;;;;;;6300779;22;20011;-83
2021/10/14 00:54:19;;;;;;;0.00;0.00;;;11.60;99.90;;;;;;6250168;22;20017;-84
2021/10/14 00:56:46;;;;;;;0.00;0.00;;;11.60;99.90;;;;;;6325476;22;20011;-83
2021/10/14 00:59:14;;;;;;;0.00;0.00;;;11.50;99.90;;;;;;6300639;22;20098;-83
2021/10/14 01:01:41;;;;;;;0.00;0.00;;;11.50;99.90;;;;;;6301556;22;20678;-83
2021/10/14 01:04:08;;;;;;;0.00;0.00;;;11.40;99.90;;;;;;6326508;22;20015;-83
2021/10/14 01:06:34;;;;;;;0.00;0.00;;;11.50;99.90;;;;;;6301702;22;20064;-83
2021/10/14 01:09:01;;;;;;;0.00;0.00;;;11.40;99.90;;;;;;6276288;22;20011;-83
2021/10/14 01:11:28;;;;;;;0.00;0.00;;;11.40;99.90;;;;;;6276666;22;20011;-83
2021/10/14 01:13:55;;;;;;;0.00;0.00;;;11.40;99.90;;;;;;6327413;22;20011;-83
2021/10/14 01:16:22;;;;;;;0.00;0.00;;;11.50;99.90;;;;;;6276253;22;20407;-83
2021/10/14 01:18:49;;;;;;;0.00;0.00;;;11.40;99.90;;;;;;6301430;22;20015;-83
2021/10/14 01:21:16;;;;;;;0.00;0.00;;;11.40;99.90;;;;;;6301177;22;20051;-84
2021/10/14 01:23:44;;;;;;;0.00;0.00;;;11.40;99.90;;;;;;6275610;22;20085;-83
2021/10/14 01:26:10;;;;;;;0.00;0.00;;;11.50;99.90;;;;;;6301504;22;20059;-83
2021/10/14 01:28:38;;;;;;;0.00;0.00;;;11.50;99.90;;;;;;6300676;22;20121;-83
2021/10/14 01:31:04;;;;;;;0.00;0.00;;;11.50;99.90;;;;;;6275916;22;20416;-83
2021/10/14 01:33:31;;;;;;;0.08;0.08;;;11.60;99.90;;;;;;6250930;22;20015;-83
2021/10/14 01:35:59;;;;;;;0.00;0.00;;;11.60;99.90;;;;;;6301812;22;20011;-83
2021/10/14 01:38:25;;;;;;;0.00;0.00;;;11.60;99.90;;;;;;6300004;22;20626;-83
2021/10/14 01:40:52;;;;;;;0.00;0.00;;;11.70;99.90;;;;;;6300463;22;20038;-83
2021/10/14 01:43:20;;;;;;;0.00;0.00;;;11.70;99.90;;;;;;6250625;22;20022;-83
2021/10/14 01:45:47;;;;;;;0.00;0.00;;;11.70;99.90;;;;;;6300830;22;20050;-83
2021/10/14 01:48:14;;;;;;;0.10;0.10;;;11.70;99.90;;;;;;6275201;22;20026;-83
2021/10/14 01:50:41;;;;;;;0.00;0.00;;;11.70;99.90;;;;;;6275242;22;20011;-83
2021/10/14 01:53:08;;;;;;;0.00;0.00;;;11.60;99.90;;;;;;6250641;22;20019;-82
2021/10/14 01:55:35;;;;;;;0.00;0.00;;;11.60;99.90;;;;;;6300371;22;20022;-82
2021/10/14 01:58:02;;;;;;;0.00;0.00;;;11.60;99.90;;;;;;6300328;22;20023;-83
2021/10/14 02:00:28;;;;;;;0.00;0.00;;;11.60;99.90;;;;;;6249479;22;20015;-82
2021/10/14 02:02:55;;;;;;;0.00;0.00;;;11.60;99.90;;;;;;6250402;22;20046;-83
2021/10/14 02:05:22;;;;;;;0.00;0.00;;;11.60;99.90;;;;;;6250296;22;20105;-83
2021/10/14 02:07:49;;;;;;;0.00;0.00;;;11.60;99.90;;;;;;6249484;22;20061;-83
2021/10/14 02:10:15;;;;;;;0.00;0.00;;;11.60;99.90;;;;;;6274309;22;20387;-83
2021/10/14 02:12:43;;;;;;;0.00;0.00;;;11.60;99.90;;;;;;6249520;22;20026;-84
2021/10/14 02:15:10;;;;;;;0.00;0.00;;;11.70;99.90;;;;;;6325538;22;20082;-83
2021/10/14 02:17:36;;;;;;;0.00;0.00;;;11.60;99.90;;;;;;6300029;22;20054;-83
2021/10/14 02:20:03;;;;;;;0.00;0.00;;;11.70;99.90;;;;;;6274559;22;20047;-83
2021/10/14 02:22:30;;;;;;;0.00;0.00;;;11.60;99.90;;;;;;6250500;22;20030;-82
2021/10/14 02:24:57;;;;;;;0.00;0.00;;;11.60;99.90;;;;;;6275007;22;20011;-83
2021/10/14 02:27:24;;;;;;;0.00;0.00;;;11.60;99.90;;;;;;6275014;22;20019;-83
2021/10/14 02:29:51;;;;;;;0.00;0.00;;;11.60;99.90;;;;;;6300274;22;20054;-83
2021/10/14 02:32:18;;;;;;;0.00;0.00;;;11.70;99.90;;;;;;6299809;22;20011;-83
2021/10/14 02:34:45;;;;;;;0.22;0.10;;;11.70;99.90;;;;;;6299701;22;20046;-82
2021/10/14 02:37:11;;;;;;;0.00;0.00;;;11.70;99.90;;;;;;6274353;22;20455;-82
2021/10/14 02:39:38;;;;;;;0.00;0.00;;;11.70;99.90;;;;;;6274470;22;20019;-83
2021/10/14 02:42:05;;;;;;;0.00;0.00;;;11.70;99.90;;;;;;6300278;22;20375;-83
2021/10/14 02:44:32;;;;;;;0.00;0.00;;;11.70;99.90;;;;;;6300145;22;20562;-83
2021/10/14 02:46:58;;;;;;;0.00;0.00;;;11.60;99.90;;;;;;6300293;22;20058;-83
2021/10/14 02:49:25;;;;;;;0.00;0.00;;;11.70;99.90;;;;;;6275063;22;20489;-83
2021/10/14 02:51:52;;;;;;;0.00;0.00;;;11.70;99.90;;;;;;6299811;22;20019;-84
2021/10/14 02:54:18;;;;;;;0.00;0.00;;;11.70;99.90;;;;;;6275010;22;20042;-84
2021/10/14 02:56:45;;;;;;;0.00;0.00;;;11.70;99.90;;;;;;6299850;22;20015;-83
2021/10/14 02:59:12;;;;;;;0.05;0.05;;;11.70;99.90;;;;;;6250278;22;20098;-83
2021/10/14 03:01:38;;;;;;;0.00;0.00;;;11.70;99.90;;;;;;6300356;22;20022;-83
2021/10/14 03:04:05;;;;;;;0.00;0.00;;;11.70;99.90;;;;;;6275213;22;20444;-83
2021/10/14 03:06:32;;;;;;;0.00;0.00;;;11.70;99.90;;;;;;6300582;22;20436;-83
2021/10/14 03:08:58;;;;;;;0.00;0.00;;;11.70;99.90;;;;;;6249366;22;20019;-83
2021/10/14 03:11:25;;;;;;;0.00;0.00;;;11.60;99.90;;;;;;6299199;22;20090;-83
2021/10/14 03:13:52;;;;;;;0.00;0.00;;;11.70;99.90;;;;;;6274077;22;20077;-83
2021/10/14 03:16:19;;;;;;;0.00;0.00;;;11.70;99.90;;;;;;6324671;22;20007;-83
2021/10/14 03:18:45;;;;;;;0.00;0.00;;;11.60;99.90;;;;;;6248785;22;20371;-82
2021/10/14 03:21:12;;;;;;;0.00;0.00;;;11.60;99.90;;;;;;6248448;22;20769;-83
2021/10/14 03:23:39;;;;;;;0.00;0.00;;;11.60;99.90;;;;;;6248762;22;20022;-82
2021/10/14 03:26:05;;;;;;;0.00;0.00;;;11.60;99.90;;;;;;6274283;22;20019;-83
2021/10/14 03:28:32;;;;;;;0.00;0.00;;;11.60;99.90;;;;;;6273746;22;20023;-83
2021/10/14 03:30:59;;;;;;;0.00;0.00;;;11.60;99.90;;;;;;6273324;22;20019;-83
2021/10/14 03:33:26;;;;;;;0.00;0.00;;;11.50;99.90;;;;;;6299123;22;20022;-83
2021/10/14 03:35:53;;;;;;;0.00;0.00;;;11.50;99.90;;;;;;6273262;22;20022;-83
2021/10/14 03:38:19;;;;;;;0.00;0.00;;;11.50;99.90;;;;;;6298871;22;20023;-83
2021/10/14 03:40:46;;;;;;;0.20;0.10;;;11.50;99.90;;;;;;6273333;22;20019;-83
2021/10/14 03:43:13;;;;;;;0.00;0.00;;;11.40;99.90;;;;;;6299014;22;20456;-83
2021/10/14 03:45:40;;;;;;;0.00;0.00;;;11.40;99.90;;;;;;6248106;22;20026;-83
2021/10/14 03:48:06;;;;;;;0.03;0.03;;;11.40;99.90;;;;;;6297793;22;20015;-83
2021/10/14 03:50:33;;;;;;;0.00;0.00;;;11.40;99.90;;;;;;6298176;22;20019;-83
2021/10/14 03:53:00;;;;;;;0.17;0.17;;;11.40;99.90;;;;;;6298129;22;20019;-83
2021/10/14 03:55:27;;;;;;;0.00;0.00;;;11.40;99.90;;;;;;6324297;22;20521;-83
2021/10/14 03:57:55;;;;;;;0.10;0.10;;;11.50;99.90;;;;;;6323633;22;20066;-83
2021/10/14 04:00:22;;;;;;;0.00;0.00;;;11.50;99.90;;;;;;6273374;22;20020;-83
2021/10/14 04:02:49;;;;;;;0.00;0.00;;;11.50;99.90;;;;;;6272625;22;20019;-83
2021/10/14 04:05:15;;;;;;;0.00;0.00;;;11.50;99.90;;;;;;6324306;22;20069;-83
2021/10/14 04:07:42;;;;;;;0.00;0.00;;;11.50;99.90;;;;;;6273176;22;20451;-83
2021/10/14 04:10:10;;;;;;;0.00;0.00;;;11.60;99.90;;;;;;6272947;22;20371;-84
2021/10/14 04:12:37;;;;;;;0.00;0.00;;;11.50;99.90;;;;;;6273354;22;20094;-83
2021/10/14 04:15:04;;;;;;;0.00;0.00;;;11.50;99.90;;;;;;6272361;22;20043;-83
2021/10/14 04:17:31;;;;;;;0.00;0.00;;;11.50;99.90;;;;;;6272731;22;20055;-83
2021/10/14 04:19:57;;;;;;;0.00;0.00;;;11.50;99.90;;;;;;6272294;22;20041;-83
2021/10/14 04:22:26;;;;;;;0.00;0.00;;;11.50;99.90;;;;;;6247901;22;20328;-83
2021/10/14 04:24:53;;;;;;;0.00;0.00;;;11.50;99.90;;;;;;6273165;22;20389;-83
2021/10/14 04:27:21;;;;;;;0.00;0.00;;;11.50;99.90;;;;;;6298228;22;20343;-83
2021/10/14 04:29:47;;;;;;;0.00;0.00;;;11.50;99.90;;;;;;6323117;22;20019;-83
2021/10/14 04:32:15;;;;;;;0.10;0.10;;;11.50;99.90;;;;;;6272650;22;20033;-83
2021/10/14 04:34:42;;;;;;;0.25;0.10;;;11.50;99.90;;;;;;6272455;22;20019;-83
2021/10/14 04:37:09;;;;;;;0.00;0.00;;;11.50;99.90;;;;;;6247511;22;20019;-83
2021/10/14 04:39:37;;;;;;;0.00;0.00;;;11.50;99.90;;;;;;6297976;22;20060;-83
2021/10/14 04:42:05;;;;;;;0.10;0.10;;;11.50;99.90;;;;;;6297170;22;20053;-83
2021/10/14 04:44:32;;;;;;;0.05;0.00;;;11.50;99.90;;;;;;6297796;22;20058;-83
2021/10/14 04:47:02;;;;;;;0.00;0.00;;;11.60;99.90;;;;;;6297445;22;20072;-83
2021/10/14 04:49:29;;;;;;;0.00;0.00;;;11.50;99.90;;;;;;6297608;22;20018;-83
2021/10/14 04:51:56;;;;;;;0.00;0.00;;;11.50;99.90;;;;;;6323698;22;20011;-84
2021/10/14 04:54:23;;;;;;;0.00;0.00;;;11.20;99.90;;;;;;6297813;22;20339;-83
2021/10/14 04:56:50;;;;;;;0.10;0.10;;;11.60;99.90;;;;;;6247290;22;20089;-83
2021/10/14 04:59:16;;;;;;;0.00;0.00;;;11.60;99.90;;;;;;6298017;22;20023;-83
2021/10/14 05:01:43;;;;;;;0.00;0.00;;;11.60;99.90;;;;;;6247704;22;20027;-83
2021/10/14 05:04:10;;;;;;;0.00;0.00;;;11.50;99.90;;;;;;6247757;22;20019;-83
2021/10/14 05:06:36;;;;;;;0.08;0.08;;;11.60;99.90;;;;;;6247683;22;20026;-83
2021/10/14 05:09:03;;;;;;;0.10;0.10;;;11.60;99.90;;;;;;6246880;22;20022;-83
2021/10/14 05:11:30;;;;;;;0.13;0.13;;;11.60;99.90;;;;;;6247585;22;20026;-83
2021/10/14 05:13:56;;;;;;;0.00;0.00;;;11.50;99.90;;;;;;6271929;22;20022;-83
2021/10/14 05:16:23;;;;;;;0.10;0.10;;;11.60;99.90;;;;;;6247557;22;20019;-83
2021/10/14 05:18:50;;;;;;;0.00;0.00;;;11.60;99.90;;;;;;6247680;22;20309;-83
2021/10/14 05:21:16;;;;;;;0.00;0.00;;;11.60;99.90;;;;;;6297877;22;20019;-83
2021/10/14 05:23:43;;;;;;;0.15;0.15;;;11.60;99.90;;;;;;6247224;22;20019;-83
2021/10/14 05:26:10;;;;;;;0.00;0.00;;;11.60;99.90;;;;;;6272588;22;20156;-83
2021/10/14 05:28:36;;;;;;;0.10;0.10;;;11.70;99.90;;;;;;6272560;22;20015;-84
2021/10/14 05:31:03;;;;;;;0.00;0.00;;;11.70;99.90;;;;;;6272351;22;20015;-83
2021/10/14 05:33:30;;;;;;;0.00;0.00;;;11.70;99.90;;;;;;6272738;22;20019;-82
2021/10/14 05:35:56;;;;;;;0.00;0.00;;;11.70;99.90;;;;;;6272853;22;20462;-83
2021/10/14 05:38:23;;;;;;;0.00;0.00;;;11.70;99.90;;;;;;6298066;22;20019;-83
2021/10/14 05:40:50;;;;;;;0.08;0.08;;;11.70;99.90;;;;;;6323293;22;20015;-83
2021/10/14 05:43:17;;;;;;;0.00;0.00;;;11.70;99.90;;;;;;6247656;22;20015;-82
2021/10/14 05:45:44;;;;;;;0.20;0.13;;;11.70;99.90;;;;;;6274335;22;20100;-83
2021/10/14 05:48:10;;;;;;;0.00;0.00;;;11.70;99.90;;;;;;6275008;22;20514;-83
2021/10/14 05:50:37;;;;;;;0.00;0.00;;;11.80;99.90;;;;;;6274826;22;20019;-83
2021/10/14 05:53:04;;;;;;;0.00;0.00;;;11.80;99.90;;;;;;6276143;22;20011;-83
2021/10/14 05:55:30;;;;;;;0.00;0.00;;;11.80;99.90;;;;;;6301834;22;20018;-83
2021/10/14 05:57:57;;;;;;;0.00;0.00;;;11.80;99.90;;;;;;6300898;22;20095;-83
2021/10/14 06:00:24;;;;;;;0.50;0.08;;;11.80;99.90;;;;;;6251255;22;20470;-82
2021/10/14 06:02:50;;;;;;;0.00;0.00;;;11.80;99.90;;;;;;6298957;22;20015;-82
2021/10/14 06:05:17;;;;;;;0.00;0.00;;;11.90;99.90;;;;;;6248727;22;20023;-81
2021/10/14 06:07:44;;;;;;;0.00;0.00;;;11.90;99.90;;;;;;6300123;22;20057;-82
2021/10/14 06:10:10;;;;;;;0.00;0.00;;;11.90;99.90;;;;;;6248601;22;20043;-82
2021/10/14 06:12:37;;;;;;;0.00;0.00;;;11.90;99.90;;;;;;6274529;22;20019;-81
2021/10/14 06:15:05;;;;;;;0.00;0.00;;;11.90;99.90;;;;;;6250306;22;20536;-82
2021/10/14 06:17:32;;;;;;;0.10;0.10;;;11.90;99.90;;;;;;6274497;22;20011;-83
2021/10/14 06:19:59;;;;;;;0.00;0.00;;;11.90;99.90;;;;;;6274718;22;20015;-82
2021/10/14 06:22:25;;;;;;;0.00;0.00;;;12.00;99.90;;;;;;6275045;22;20077;-83
2021/10/14 06:24:52;;;;;;;0.00;0.00;;;12.00;99.90;;;;;;6301984;22;20413;-82
2021/10/14 06:27:19;;;;;;;0.00;0.00;;;12.00;99.90;;;;;;6275656;22;20037;-82
2021/10/14 06:29:45;;;;;;;0.10;0.10;;;12.00;99.90;;;;;;6250830;22;20019;-83
2021/10/14 06:32:12;;;;;;;0.00;0.00;;;12.00;99.90;;;;;;6299705;22;20455;-84
2021/10/14 06:34:39;;;;;;;0.00;0.00;;;12.00;99.90;;;;;;6275626;22;20336;-84
2021/10/14 06:37:06;;;;;;;0.10;0.10;;;12.00;99.90;;;;;;6249596;22;20042;-83
2021/10/14 06:39:32;;;;;;;0.00;0.00;;;12.00;99.90;;;;;;6250265;22;20067;-83
2021/10/14 06:42:01;;;;;;;0.10;0.10;;;12.00;99.90;;;;;;6274732;22;20046;-84
2021/10/14 06:44:30;;;;;;;0.25;0.25;;;12.00;99.90;;;;;;6252889;22;20019;-83
2021/10/14 06:46:57;;;;;;;0.00;0.00;;;12.10;99.90;;;;;;6300359;22;20069;-82
2021/10/14 06:49:24;;;;;;;0.00;0.00;;;12.10;99.90;;;;;;6275795;22;20015;-84
2021/10/14 06:51:51;;;;;;;0.00;0.00;;;12.10;99.90;;;;;;6275520;22;20011;-86
2021/10/14 06:54:18;;;;;;;0.20;0.10;;;12.10;99.90;;;;;;6251277;22;20011;-84
2021/10/14 06:56:44;;;;;;;0.00;0.00;;;12.20;99.90;;;;;;6251637;22;20035;-84
2021/10/14 06:59:11;;;;;;;0.00;0.00;;;12.20;99.90;;;;;;6250398;22;20015;-86
2021/10/14 07:01:38;;;;;;;0.00;0.00;;;12.20;99.90;;;;;;6274780;22;20068;-88
2021/10/14 07:04:05;;;;;;;0.00;0.00;;;12.20;99.90;;;;;;6327429;22;20023;-89
2021/10/14 07:06:32;;;;;;;0.00;0.00;;;12.20;99.90;;;;;;6301544;22;20094;-85
2021/10/14 07:08:59;;;;;;;0.00;0.00;;;12.20;99.90;;;;;;6325462;22;20100;-85
2021/10/14 07:11:30;;;;;;;0.00;0.00;;;12.20;99.90;;;;;;6274975;22;20352;-85
2021/10/14 07:13:58;;;;;;;0.03;0.03;;;12.20;99.90;;;;;;6301749;22;20094;-85
2021/10/14 07:16:27;;;;;;;0.00;0.00;;;12.20;99.90;;;;;;6300068;22;20576;-84
2021/10/14 07:18:54;;;;;;;0.00;0.00;;;12.20;99.90;;;;;;6275377;22;20011;-84
2021/10/14 07:21:21;;;;;;;0.00;0.00;;;12.30;99.90;;;;;;6249782;22;20448;-85
2021/10/14 07:23:48;;;;;;;0.00;0.00;;;12.20;99.90;;;;;;6300634;22;20110;-85
2021/10/14 07:26:14;;;;;;;0.10;0.10;;;12.20;99.90;;;;;;6249394;22;20348;-85
2021/10/14 07:28:41;;;;;;;0.00;0.00;;;12.30;99.90;;;;;;6250055;22;20019;-88
2021/10/14 07:31:08;;;;;;;0.00;0.00;;;12.20;99.90;;;;;;6324821;22;20344;-88
2021/10/14 07:33:35;;;;;;;0.20;0.20;;;12.30;99.90;;;;;;6249661;22;20015;-87
2021/10/14 07:36:01;;;;;;;0.00;0.00;;;12.20;99.90;;;;;;6301009;22;20054;-89
2021/10/14 07:38:28;;;;;;;0.00;0.00;;;12.30;99.90;;;;;;6275792;22;20328;-86
2021/10/14 07:40:55;;;;;;;0.00;0.00;;;12.30;99.90;;;;;;6300432;22;20026;-82
2021/10/14 07:43:22;;;;;;;0.00;0.00;;;12.30;99.90;;;;;;6300109;22;20038;-83
2021/10/14 07:45:49;;;;;;;0.00;0.00;;;12.30;99.90;;;;;;6249571;22;20016;-84
2021/10/14 07:48:16;;;;;;;0.00;0.00;;;12.20;99.90;;;;;;6274002;22;20094;-84
2021/10/14 07:50:43;;;;;;;0.00;0.00;;;12.30;99.90;;;;;;6299239;22;20030;-86
2021/10/14 07:53:29;;;;;;;0.17;0.17;;;12.30;99.90;;;;;;6250491;22;20011;-88
2021/10/14 07:55:56;;;;;;;0.03;0.03;;;12.40;99.90;;;;;;6325687;22;20479;-87
2021/10/14 07:58:22;;;;;;;0.00;0.00;;;12.30;99.90;;;;;;6274811;22;20061;-86
2021/10/14 08:00:49;;;;;;;0.00;0.00;;;12.40;99.90;;;;;;6249403;22;20129;-84
2021/10/14 08:03:17;;;;;;;0.10;0.10;;;12.40;99.90;;;;;;6274666;22;20436;-82
2021/10/14 08:05:44;;;;;;;0.28;0.13;;;12.40;99.90;;;;;;6249460;22;20015;-83
2021/10/14 08:08:11;;;;;;;0.10;0.10;;;12.40;99.90;;;;;;6248843;22;20088;-83
2021/10/14 08:10:38;;;;;;;0.10;0.10;;;12.50;99.90;;;;;;6274306;22;20019;-84
2021/10/14 08:13:06;;;;;;;0.03;0.03;;;12.50;99.90;;;;;;6300104;22;20073;-83
2021/10/14 08:15:33;;;;;;;0.05;0.05;;;12.50;99.90;;;;;;6274924;22;20015;-84
2021/10/14 08:17:59;;;;;;;0.00;0.00;;;12.50;99.90;;;;;;6299683;22;20021;-83
2021/10/14 08:20:28;;;;;;;0.00;0.00;;;12.60;99.90;;;;;;6273941;22;20015;-83
2021/10/14 08:22:55;;;;;;;0.00;0.00;;;12.60;99.90;;;;;;6249419;22;20827;-85
2021/10/14 08:25:22;;;;;;;0.00;0.00;;;12.60;99.90;;;;;;6273930;22;20071;-88
2021/10/14 08:27:49;;;;;;;0.00;0.00;;;12.60;99.90;;;;;;6299943;22;20019;-90
2021/10/14 08:30:15;;;;;;;0.00;0.00;;;12.60;99.90;;;;;;6274924;22;20016;-85
2021/10/14 08:32:42;;;;;;;0.10;0.10;;;12.60;99.90;;;;;;6299874;22;20050;-87
2021/10/14 08:35:13;;;;;;;0.00;0.00;;;12.70;99.90;;;;;;6299900;22;20019;-85
2021/10/14 08:37:40;;;;;;;0.00;0.00;;;12.70;99.90;;;;;;6299505;22;20058;-83
2021/10/14 08:40:07;;;;;;;0.00;0.00;;;12.70;99.90;;;;;;6248524;22;20459;-85
2021/10/14 08:42:34;;;;;;;0.05;0.05;;;12.70;99.90;;;;;;6298597;22;20443;-85
2021/10/14 08:45:04;;;;;;;0.08;0.08;;;12.70;99.90;;;;;;6299444;22;20456;-88
2021/10/14 08:47:31;;;;;;;0.00;0.00;;;12.80;99.90;;;;;;6299006;22;20077;-87
2021/10/14 08:49:58;;;;;;;0.00;0.00;;;12.70;99.90;;;;;;6299188;22;20011;-84
2021/10/14 08:52:26;;;;;;;0.00;0.00;;;12.80;99.90;;;;;;6249629;22;20039;-85
2021/10/14 08:54:53;;;;;;;0.00;0.00;;;12.80;99.90;;;;;;6324997;22;20022;-85
2021/10/14 08:57:20;;;;;;;0.00;0.00;;;12.80;99.90;;;;;;6297815;22;20015;-86
2021/10/14 08:59:46;;;;;;;0.00;0.00;;;12.80;99.90;;;;;;6247166;22;20019;-86
2021/10/14 09:02:16;;;;;;;0.00;0.00;;;12.80;99.90;;;;;;6272850;22;20016;-84
2021/10/14 09:04:55;;;;;;;0.00;0.00;;;12.80;99.90;;;;;;6297014;22;20030;-85
2021/10/14 09:07:24;;;;;;;0.45;0.20;;;12.80;99.90;;;;;;6297297;22;20019;-85
2021/10/14 09:09:52;;;;;;;0.13;0.10;;;12.90;99.90;;;;;;6322633;22;20118;-85
2021/10/14 09:12:22;;;;;;;0.00;0.00;;;12.90;99.90;;;;;;6272249;22;20015;-84
2021/10/14 09:15:04;;;;;;;0.00;0.00;;;12.90;99.90;;;;;;6297689;22;20018;-85
2021/10/14 09:17:36;;;;;;;0.10;0.10;;;13.00;99.90;;;;;;6297687;22;20086;-86
2021/10/14 09:20:39;;;;;;;0.00;0.00;;;13.00;99.90;;;;;;6324347;22;20344;-86
2021/10/14 09:23:13;;;;;;;0.00;0.00;;;13.00;99.90;;;;;;6299596;22;20023;-87
2021/10/14 09:25:42;;;;;;;0.00;0.00;;;13.10;99.90;;;;;;6299353;22;20413;-86
2021/10/14 09:28:17;;;;;;;0.10;0.10;;;13.10;99.90;;;;;;6325390;22;20019;-86
2021/10/14 09:30:50;;;;;;;0.00;0.00;;;13.10;99.90;;;;;;6299438;22;20023;-86
2021/10/14 09:33:30;;;;;;;0.00;0.00;;;13.10;99.90;;;;;;6299589;22;20064;-86
2021/10/14 09:36:10;;;;;;;0.00;0.00;;;13.10;99.90;;;;;;6300389;22;20422;-86
2021/10/14 09:38:37;;;;;;;0.00;0.00;;;13.10;99.90;;;;;;6298950;22;20023;-85
2021/10/14 09:41:09;;;;;;;0.00;0.00;;;13.20;99.90;;;;;;6299483;22;20113;-85
2021/10/14 09:43:36;;;;;;;0.00;0.00;;;13.20;99.90;;;;;;6299082;22;20011;-85
2021/10/14 09:46:03;;;;;;;0.00;0.00;;;13.20;99.90;;;;;;6324751;22;20461;-85
2021/10/14 09:48:31;;;;;;;0.10;0.10;;;13.30;99.90;;;;;;6299137;22;20034;-85
2021/10/14 09:50:58;;;;;;;0.00;0.00;;;13.30;99.90;;;;;;6249358;22;20026;-85
2021/10/14 09:53:26;;;;;;;0.00;0.00;;;13.40;99.90;;;;;;6302193;22;20437;-85
2021/10/14 09:55:54;;;;;;;0.00;0.00;;;13.40;99.90;;;;;;6273549;22;20076;-85
2021/10/14 09:58:24;;;;;;;0.00;0.00;;;13.40;99.90;;;;;;6273834;22;20064;-85
2021/10/14 10:00:52;;;;;;;0.00;0.00;;;13.40;99.90;;;;;;6274232;22;20054;-86
2021/10/14 10:03:21;;;;;;;0.03;0.03;;;13.50;99.90;;;;;;6324509;22;20448;-84
2021/10/14 10:05:51;;;;;;;0.57;0.38;;;13.50;99.90;;;;;;6298864;22;20435;-83
2021/10/14 10:08:31;;;;;;;0.00;0.00;;;13.50;99.90;;;;;;6273761;22;20011;-85
2021/10/14 10:11:03;;;;;;;0.00;0.00;;;13.50;99.90;;;;;;6298983;22;20454;-83
2021/10/14 10:13:33;;;;;;;0.10;0.10;;;13.50;99.90;;;;;;6298840;22;20015;-82
2021/10/14 10:16:19;;;;;;;0.00;0.00;;;13.50;99.90;;;;;;6298596;22;20019;-83
2021/10/14 10:18:48;;;;;;;0.20;0.10;;;13.40;99.90;;;;;;6272905;22;20046;-82
2021/10/14 10:21:33;;;;;;;0.00;0.00;;;13.50;99.90;;;;;;6298126;22;20443;-82
2021/10/14 10:24:22;;;;;;;0.00;0.00;;;13.50;99.90;;;;;;6298719;22;20023;-82
2021/10/14 10:26:50;;;;;;;0.00;0.00;;;13.50;99.90;;;;;;6298459;22;20099;-82
2021/10/14 10:29:19;;;;;;;0.08;0.08;;;13.50;99.90;;;;;;6298652;22;20015;-82
2021/10/14 10:31:46;;;;;;;0.00;0.00;;;13.60;99.90;;;;;;6298256;22;20023;-82
2021/10/14 10:37:20;;;;;;;0.00;0.00;;;13.60;99.90;;;;;;6324053;22;20729;-82
2021/10/14 10:39:50;;;;;;;0.00;0.00;;;13.70;99.90;;;;;;6298540;22;20011;-82
2021/10/14 10:42:25;;;;;;;0.08;0.08;;;13.70;99.90;;;;;;6299015;22;20046;-83
2021/10/14 10:45:05;;;;;;;0.10;0.10;;;13.70;99.90;;;;;;6298839;22;20022;-82
2021/10/14 10:47:46;;;;;;;0.00;0.00;;;13.70;99.90;;;;;;6275562;22;20011;-82
2021/10/14 10:50:33;;;;;;;0.03;0.03;;;13.80;99.90;;;;;;6298103;22;20023;-83
2021/10/14 10:53:13;;;;;;;0.00;0.00;;;13.80;99.90;;;;;;6298131;22;20015;-83
2021/10/14 10:55:59;;;;;;;0.00;0.00;;;13.90;99.90;;;;;;6298264;22;20022;-82
2021/10/14 10:58:31;;;;;;;0.00;0.00;;;13.90;99.90;;;;;;6298817;22;20011;-88
2021/10/14 11:01:01;;;;;;;0.00;0.00;;;13.90;99.90;;;;;;6323254;22;20023;-87
2021/10/14 11:03:28;;;;;;;0.03;0.03;;;13.90;99.90;;;;;;6274132;22;20096;-87
2021/10/14 11:05:58;;;;;;;1.10;1.00;;;13.90;99.90;;;;;;6273977;22;20019;-86
2021/10/14 11:08:31;;;;;;;0.08;0.08;;;13.90;99.90;;;;;;6298785;22;20339;-83
2021/10/14 11:11:02;;;;;;;0.05;0.05;;;14.00;99.90;;;;;;6298116;22;20015;-85
2021/10/14 11:13:31;;;;;;;0.00;0.00;;;14.00;99.90;;;;;;6298460;22;20012;-84
2021/10/14 11:15:58;;;;;;;0.20;0.20;;;14.00;99.90;;;;;;6298297;22;20464;-85
2021/10/14 11:18:27;;;;;;;1.75;0.32;;;14.10;99.90;;;;;;6298257;22;21596;-85
2021/10/14 11:21:05;;;;;;;0.00;0.00;;;14.10;99.90;;;;;;6323689;22;20016;-85
2021/10/14 11:23:43;;;;;;;0.00;0.00;;;14.20;99.90;;;;;;6298079;22;20015;-86
2021/10/14 11:26:17;;;;;;;0.00;0.00;;;14.20;99.90;;;;;;6298377;22;20072;-84
2021/10/14 11:28:51;;;;;;;0.05;0.05;;;14.10;99.90;;;;;;6297863;22;20022;-84
2021/10/14 11:31:35;;;;;;;0.10;0.10;;;14.10;99.90;;;;;;6297968;22;20471;-84
2021/10/14 11:34:09;;;;;;;0.10;0.10;;;14.20;99.90;;;;;;6298092;22;20012;-85
2021/10/14 11:36:38;;;;;;;0.00;0.00;;;14.20;99.90;;;;;;6298314;22;20011;-83
2021/10/14 11:39:07;;;;;;;0.00;0.00;;;14.30;99.90;;;;;;6323302;22;20447;-84
2021/10/14 11:41:35;;;;;;;0.00;0.00;;;14.30;99.90;;;;;;6297668;22;20026;-80
2021/10/14 11:44:04;;;;;;;0.00;0.00;;;14.30;99.90;;;;;;6272652;22;20447;-81
2021/10/14 11:46:33;;;;;;;0.00;0.00;;;14.30;99.90;;;;;;6297790;22;20038;-80
2021/10/14 11:49:11;;;;;;;0.10;0.10;;;14.30;99.90;;;;;;6323489;22;20036;-80
2021/10/14 11:51:39;;;;;;;0.00;0.00;;;14.30;99.90;;;;;;6297750;22;20015;-81
2021/10/14 11:54:11;;;;;;;0.03;0.03;;;14.40;99.90;;;;;;6297477;22;20007;-80
2021/10/14 11:56:55;;;;;;;0.10;0.10;;;14.30;99.90;;;;;;6298145;22;20011;-81
2021/10/14 11:59:29;;;;;;;0.00;0.00;;;14.40;99.90;;;;;;6297873;22;20015;-90
2021/10/14 12:01:59;;;;;;;0.10;0.10;;;14.40;99.90;;;;;;6323047;22;20028;-82
2021/10/14 12:04:34;;;;;;;0.08;0.08;;;14.40;99.90;;;;;;6323489;22;20021;-82
2021/10/14 12:07:02;;;;;;;0.00;0.00;;;14.40;99.90;;;;;;6298503;22;20090;-81
2021/10/14 12:09:29;;;;;;;0.10;0.10;;;14.50;99.90;;;;;;6297899;22;20015;-83
2021/10/14 12:12:01;;;;;;;0.00;0.00;;;14.50;99.90;;;;;;6272261;22;20530;-82
2021/10/14 12:14:29;;;;;;;0.00;0.00;;;14.50;99.90;;;;;;6297591;22;20022;-84
2021/10/14 12:17:10;;;;;;;0.00;0.00;;;14.40;99.90;;;;;;6272263;22;20034;-84
2021/10/14 12:19:47;;;;;;;0.10;0.10;;;14.50;99.90;;;;;;6297567;22;20458;-84
2021/10/14 12:22:20;;;;;;;0.10;0.10;;;14.50;99.90;;;;;;6297815;22;20339;-84
2021/10/14 12:25:05;;;;;;;0.08;0.08;;;14.50;99.90;;;;;;6297499;22;20335;-83
2021/10/14 12:27:48;;;;;;;0.00;0.00;;;14.50;99.90;;;;;;6298217;22;20021;-84
2021/10/14 12:30:30;;;;;;;0.10;0.10;;;14.60;99.90;;;;;;6322756;22;20026;-83
2021/10/14 12:33:10;;;;;;;0.00;0.00;;;14.70;99.90;;;;;;6297159;22;20015;-84
2021/10/14 12:35:39;;;;;;;0.00;0.00;;;14.70;99.90;;;;;;6322989;22;20094;-84
2021/10/14 12:38:11;;;;;;;0.10;0.10;;;14.70;99.90;;;;;;6272065;22;20451;-84
2021/10/14 12:40:44;;;;;;;0.10;0.10;;;14.70;99.90;;;;;;6297738;22;20435;-84
2021/10/14 12:43:28;;;;;;;0.00;0.00;;;14.60;99.90;;;;;;6298152;22;20378;-84
2021/10/14 12:46:12;;;;;;;0.00;0.00;;;14.50;99.90;;;;;;6273728;22;20110;-84
2021/10/14 12:51:18;;;;;;;0.00;0.00;;;14.50;99.90;;;;;;6299825;22;20021;-84
2021/10/14 12:53:56;;;;;;;0.00;0.00;;;14.40;99.90;;;;;;6248904;22;20617;-84
2021/10/14 12:56:34;;;;;;;0.00;0.00;;;14.40;99.90;;;;;;6326315;22;20759;-84
2021/10/14 12:59:06;;;;;;;0.00;0.00;;;14.30;99.90;;;;;;6300554;22;20025;-84
2021/10/14 13:01:39;;;;;;;0.00;0.00;;;14.30;99.90;;;;;;6300788;22;20093;-86